createdAt,value
2023-02-11T00:01:30.349Z,64.34
2023-02-11T00:04:00.223Z,64.14
2023-02-11T00:06:30.219Z,64.95
2023-02-11T00:08:59.239Z,64.73
2023-02-11T00:11:30.983Z,64.86
2023-02-11T00:14:00.554Z,64.59
2023-02-11T00:16:29.648Z,64.92
2023-02-11T00:18:58.913Z,65.02
2023-02-11T00:21:28.081Z,64.50
2023-02-11T00:23:57.335Z,64.74
2023-02-11T00:26:29.774Z,65.39
2023-02-11T00:28:58.349Z,65.11
2023-02-11T00:31:27.349Z,65.05
2023-02-11T00:33:56.467Z,65.13
2023-02-11T00:36:27.731Z,65.28
2023-02-11T00:38:57.218Z,65.32
2023-02-11T00:41:26.187Z,65.63
2023-02-11T00:43:56.134Z,65.47
2023-02-11T00:46:24.998Z,65.86
2023-02-11T00:48:57.752Z,65.58
2023-02-11T00:51:26.485Z,65.89
2023-02-11T00:53:55.159Z,65.76
2023-02-11T00:56:24.652Z,65.51
2023-02-11T00:58:53.480Z,65.79
2023-02-11T01:01:23.395Z,65.83
2023-02-11T01:03:51.939Z,65.84
2023-02-11T01:06:20.444Z,65.96
2023-02-11T01:08:48.861Z,65.84
2023-02-11T01:11:20.224Z,65.96
2023-02-11T01:13:49.908Z,66.12
2023-02-11T01:16:20.035Z,66.21
2023-02-11T01:18:50.140Z,66.27
2023-02-11T01:21:19.333Z,66.17
2023-02-11T01:23:47.756Z,66.09
2023-02-11T01:26:17.377Z,66.51
2023-02-11T01:28:46.840Z,66.95
2023-02-11T01:31:15.457Z,66.97
2023-02-11T01:33:43.981Z,66.47
2023-02-11T01:36:13.948Z,66.58
2023-02-11T01:38:43.847Z,66.54
2023-02-11T01:41:14.703Z,66.55
2023-02-11T01:43:46.211Z,66.91
2023-02-11T01:46:24.596Z,66.99
2023-02-11T01:48:56.853Z,66.92
2023-02-11T01:51:32.771Z,67.13
2023-02-11T01:54:20.511Z,67.31
2023-02-11T01:57:08.745Z,67.38
2023-02-11T01:59:42.659Z,67.20
2023-02-11T02:02:15.035Z,67.21
2023-02-11T02:04:51.642Z,67.09
2023-02-11T02:07:30.176Z,66.51
2023-02-11T02:10:04.730Z,66.80
2023-02-11T02:12:33.177Z,66.97
2023-02-11T02:15:21.276Z,67.04
2023-02-11T02:17:58.935Z,67.22
2023-02-11T02:20:52.928Z,67.22
2023-02-11T02:23:33.414Z,67.12
2023-02-11T02:26:33.744Z,66.95
2023-02-11T02:29:33.233Z,67.18
2023-02-11T02:32:30.820Z,67.44
2023-02-11T02:35:07.103Z,67.21
2023-02-11T02:37:39.808Z,66.86
2023-02-11T02:40:14.299Z,66.70
2023-02-11T02:42:45.303Z,66.29
2023-02-11T02:45:15.166Z,66.10
2023-02-11T02:47:45.001Z,66.12
2023-02-11T02:50:16.705Z,66.03
2023-02-11T02:52:58.144Z,65.89
2023-02-11T02:55:41.321Z,66.38
2023-02-11T02:58:41.315Z,66.35
2023-02-11T03:01:19.979Z,66.72
2023-02-11T03:03:56.162Z,67.04
2023-02-11T03:06:31.895Z,66.97
2023-02-11T03:09:10.339Z,66.85
2023-02-11T03:11:41.699Z,66.77
2023-02-11T03:14:16.896Z,66.59
2023-02-11T03:16:47.473Z,66.97
2023-02-11T03:19:21.840Z,66.92
2023-02-11T03:21:52.820Z,66.89
2023-02-11T03:24:27.649Z,66.97
2023-02-11T03:26:59.527Z,67.23
2023-02-11T03:29:36.194Z,66.65
2023-02-11T03:32:16.160Z,66.84
2023-02-11T03:34:51.329Z,66.89
2023-02-11T03:37:25.587Z,66.83
2023-02-11T03:39:58.952Z,66.94
2023-02-11T03:42:34.404Z,67.05
2023-02-11T03:45:07.753Z,66.68
2023-02-11T03:47:40.100Z,66.37
2023-02-11T03:50:12.685Z,66.18
2023-02-11T03:52:41.548Z,66.29
2023-02-11T03:55:13.759Z,66.05
2023-02-11T03:57:42.218Z,66.66
2023-02-11T04:00:12.308Z,66.39
2023-02-11T04:02:41.978Z,66.80
2023-02-11T04:05:15.750Z,66.69
2023-02-11T04:07:44.356Z,66.99
2023-02-11T04:10:13.466Z,67.10
2023-02-11T04:12:42.087Z,67.22
2023-02-11T04:15:11.086Z,67.42
2023-02-11T04:17:39.836Z,67.32
2023-02-11T04:20:09.203Z,67.31
2023-02-11T04:22:39.406Z,67.43
2023-02-11T04:25:09.507Z,67.30
2023-02-11T04:27:38.598Z,67.56
2023-02-11T04:30:08.677Z,67.49
2023-02-11T04:32:37.076Z,67.65
2023-02-11T04:35:05.925Z,67.31
2023-02-11T04:37:34.292Z,67.37
2023-02-11T04:40:04.294Z,67.79
2023-02-11T04:42:32.745Z,67.99
2023-02-11T04:45:01.124Z,67.30
2023-02-11T04:47:29.562Z,67.56
2023-02-11T04:49:57.974Z,67.63
2023-02-11T04:52:26.435Z,67.18
2023-02-11T04:54:54.929Z,67.02
2023-02-11T04:57:24.709Z,66.63
2023-02-11T04:59:53.084Z,66.34
2023-02-11T05:02:21.523Z,66.70
2023-02-11T05:04:49.883Z,66.77
2023-02-11T05:07:18.336Z,66.96
2023-02-11T05:09:46.776Z,66.92
2023-02-11T05:12:15.318Z,67.59
2023-02-11T05:14:45.314Z,67.93
2023-02-11T05:17:13.650Z,67.44
2023-02-11T05:19:43.428Z,67.00
2023-02-11T05:22:11.773Z,67.04
2023-02-11T05:24:40.282Z,67.06
2023-02-11T05:27:08.781Z,66.86
2023-02-11T05:29:37.354Z,66.88
2023-02-11T05:32:09.198Z,67.35
2023-02-11T05:34:38.037Z,67.71
2023-02-11T05:37:06.642Z,67.59
2023-02-11T05:39:35.255Z,67.61
2023-02-11T05:42:03.620Z,67.77
2023-02-11T05:44:31.969Z,67.60
2023-02-11T05:47:00.421Z,67.54
2023-02-11T05:49:31.272Z,67.55
2023-02-11T05:51:59.708Z,67.75
2023-02-11T05:54:28.791Z,67.55
2023-02-11T05:56:57.232Z,67.97
2023-02-11T05:59:26.395Z,67.80
2023-02-11T06:01:54.805Z,68.20
2023-02-11T06:04:23.232Z,67.54
2023-02-11T06:06:53.031Z,67.65
2023-02-11T06:09:21.488Z,67.82
2023-02-11T06:11:49.818Z,67.28
2023-02-11T06:14:18.212Z,67.75
2023-02-11T06:16:46.885Z,67.94
2023-02-11T06:19:15.328Z,68.04
2023-02-11T06:21:44.633Z,68.44
2023-02-11T06:24:15.470Z,68.13
2023-02-11T06:26:44.907Z,67.60
2023-02-11T06:29:14.076Z,67.36
2023-02-11T06:31:43.583Z,67.85
2023-02-11T06:34:12.199Z,66.91
2023-02-11T06:36:41.290Z,65.41
2023-02-11T06:39:09.856Z,66.25
2023-02-11T06:41:39.749Z,66.76
2023-02-11T06:44:08.309Z,67.45
2023-02-11T06:46:36.875Z,66.89
2023-02-11T06:49:05.361Z,67.23
2023-02-11T06:51:33.782Z,67.45
2023-02-11T06:54:02.345Z,67.14
2023-02-11T06:56:30.764Z,67.05
2023-02-11T06:59:00.952Z,66.88
2023-02-11T07:01:29.909Z,66.75
2023-02-11T07:03:58.323Z,66.85
2023-02-11T07:06:28.530Z,66.99
2023-02-11T07:08:58.007Z,67.08
2023-02-11T07:11:28.648Z,67.30
2023-02-11T07:14:00.948Z,67.35
2023-02-11T07:16:33.310Z,67.43
2023-02-11T07:19:01.983Z,67.22
2023-02-11T07:21:30.440Z,67.36
2023-02-11T07:23:58.831Z,67.67
2023-02-11T07:26:27.231Z,67.75
2023-02-11T07:28:55.630Z,68.03
2023-02-11T07:31:27.683Z,67.97
2023-02-11T07:34:00.450Z,67.99
2023-02-11T07:36:29.915Z,67.97
2023-02-11T07:38:58.519Z,68.02
2023-02-11T07:41:29.202Z,67.84
2023-02-11T07:43:57.678Z,67.91
2023-02-11T07:46:29.137Z,68.17
2023-02-11T07:48:59.048Z,68.08
2023-02-11T07:51:28.960Z,68.12
2023-02-11T07:53:59.682Z,68.08
2023-02-11T07:56:29.555Z,68.08
2023-02-11T07:59:01.116Z,67.66
2023-02-11T08:01:29.732Z,66.50
2023-02-11T08:04:01.141Z,65.08
2023-02-11T08:06:31.737Z,64.62
2023-02-11T08:09:04.577Z,64.07
2023-02-11T08:11:33.245Z,63.19
2023-02-11T08:14:01.621Z,62.54
2023-02-11T08:16:31.930Z,61.54
2023-02-11T08:19:03.489Z,60.69
2023-02-11T08:21:32.192Z,60.82
2023-02-11T08:24:02.304Z,60.77
2023-02-11T08:26:34.586Z,59.83
2023-02-11T08:29:08.852Z,59.08
2023-02-11T08:31:40.471Z,58.25
2023-02-11T08:34:11.670Z,58.12
2023-02-11T08:36:43.220Z,58.50
2023-02-11T08:39:19.732Z,58.96
2023-02-11T08:41:50.054Z,58.12
2023-02-11T08:44:19.103Z,57.93
2023-02-11T08:46:48.117Z,56.87
2023-02-11T08:49:18.308Z,56.71
2023-02-11T08:51:47.663Z,56.64
2023-02-11T08:54:16.311Z,57.46
2023-02-11T08:56:45.139Z,56.58
2023-02-11T08:59:17.871Z,57.46
2023-02-11T09:01:47.381Z,58.38
2023-02-11T09:04:17.300Z,57.61
2023-02-11T09:06:45.682Z,57.02
2023-02-11T09:09:16.392Z,55.68
2023-02-11T09:11:45.788Z,55.29
2023-02-11T09:14:20.189Z,55.13
2023-02-11T09:16:49.164Z,53.90
2023-02-11T09:19:21.082Z,54.15
2023-02-11T09:21:52.452Z,54.27
2023-02-11T09:28:39.349Z,51.68
2023-02-11T09:31:08.957Z,50.80
2023-02-11T09:33:38.323Z,51.66
2023-02-11T09:36:09.098Z,51.99
2023-02-11T09:38:38.408Z,49.63
2023-02-11T09:41:08.600Z,49.39
2023-02-11T09:43:44.897Z,48.73
2023-02-11T09:46:17.143Z,47.69
2023-02-11T09:48:49.208Z,47.16
2023-02-11T09:51:24.092Z,47.09
2023-02-11T09:54:00.323Z,47.74
2023-02-11T09:56:29.854Z,47.59
2023-02-11T09:58:58.334Z,47.11
2023-02-11T10:01:37.167Z,46.91
2023-02-11T10:04:15.363Z,46.22
2023-02-11T10:06:48.459Z,46.35
2023-02-11T10:09:38.413Z,46.54
2023-02-11T10:12:23.662Z,47.19
2023-02-11T10:15:25.953Z,46.63
2023-02-11T10:18:12.040Z,46.40
2023-02-11T10:20:48.006Z,46.44
2023-02-11T10:23:22.461Z,46.49
2023-02-11T10:25:54.749Z,46.02
2023-02-11T10:28:25.357Z,46.11
2023-02-11T10:30:59.979Z,45.92
2023-02-11T10:33:32.736Z,45.70
2023-02-11T10:36:01.508Z,45.67
2023-02-11T10:38:31.355Z,45.62
2023-02-11T10:40:59.927Z,45.39
2023-02-11T10:43:30.366Z,45.56
2023-02-11T10:46:00.265Z,45.94
2023-02-11T10:48:43.115Z,44.37
2023-02-11T10:51:21.481Z,44.57
2023-02-11T10:53:52.935Z,44.57
2023-02-11T10:56:28.211Z,44.41
2023-02-11T10:59:00.392Z,44.46
2023-02-11T11:01:43.415Z,45.35
2023-02-11T11:04:35.341Z,45.20
2023-02-11T11:07:17.205Z,45.29
2023-02-11T11:09:51.764Z,44.42
2023-02-11T11:12:36.440Z,44.01
2023-02-11T11:15:19.117Z,43.71
2023-02-11T11:17:47.848Z,44.08
2023-02-11T11:20:21.952Z,43.72
2023-02-11T11:22:52.884Z,43.26
2023-02-11T11:25:28.245Z,43.17
2023-02-11T11:27:59.150Z,43.13
2023-02-11T11:30:32.622Z,43.83
2023-02-11T11:33:02.285Z,43.16
2023-02-11T11:35:33.123Z,42.51
2023-02-11T11:38:04.511Z,41.44
2023-02-11T11:40:37.741Z,41.96
2023-02-11T11:43:20.254Z,41.81
2023-02-11T11:45:57.915Z,41.82
2023-02-11T11:48:29.528Z,42.08
2023-02-11T11:51:00.968Z,40.89
2023-02-11T11:53:36.806Z,40.35
2023-02-11T11:56:08.518Z,40.21
2023-02-11T11:58:37.011Z,39.91
2023-02-11T12:01:19.953Z,40.59
2023-02-11T12:04:07.234Z,39.70
2023-02-11T12:06:46.921Z,39.78
2023-02-11T12:09:22.927Z,39.03
2023-02-11T12:12:07.717Z,39.57
2023-02-11T12:14:45.120Z,38.93
2023-02-11T12:17:26.180Z,38.78
2023-02-11T12:20:14.335Z,38.52
2023-02-11T12:22:57.672Z,38.39
2023-02-11T12:25:31.613Z,38.70
2023-02-11T12:28:11.940Z,38.62
2023-02-11T12:31:03.778Z,38.02
2023-02-11T12:33:49.383Z,38.49
2023-02-11T12:36:32.746Z,38.22
2023-02-11T12:39:15.448Z,37.79
2023-02-11T12:42:16.863Z,37.73
2023-02-11T12:45:06.106Z,38.24
2023-02-11T12:47:46.141Z,37.91
2023-02-11T12:50:24.371Z,38.46
2023-02-11T12:53:05.670Z,38.07
2023-02-11T12:55:38.512Z,38.25
2023-02-11T12:58:12.276Z,38.33
2023-02-11T13:00:48.118Z,37.56
2023-02-11T13:03:24.221Z,37.22
2023-02-11T13:05:55.811Z,37.56
2023-02-11T13:08:31.434Z,36.92
2023-02-11T13:11:02.806Z,36.63
2023-02-11T13:13:37.178Z,37.00
2023-02-11T13:16:09.198Z,37.48
2023-02-11T13:18:49.653Z,37.01
2023-02-11T13:21:46.620Z,37.21
2023-02-11T13:24:24.010Z,36.12
2023-02-11T13:27:01.418Z,36.17
2023-02-11T13:29:37.708Z,37.09
2023-02-11T13:32:12.572Z,36.73
2023-02-11T13:34:59.268Z,37.10
2023-02-11T13:37:32.012Z,36.25
2023-02-11T13:40:02.357Z,35.05
2023-02-11T13:42:32.620Z,34.59
2023-02-11T13:45:01.910Z,35.29
2023-02-11T13:47:34.849Z,34.63
2023-02-11T13:50:08.409Z,34.76
2023-02-11T13:52:39.412Z,34.51
2023-02-11T13:55:17.464Z,34.74
2023-02-11T13:57:45.984Z,34.76
2023-02-11T14:00:50.644Z,35.02
2023-02-11T14:04:24.999Z,34.50
2023-02-11T14:07:45.533Z,34.37
2023-02-11T14:10:51.504Z,34.68
2023-02-11T14:13:25.700Z,33.58
2023-02-11T14:16:10.195Z,33.61
2023-02-11T14:18:54.237Z,33.69
2023-02-11T14:21:25.627Z,33.90
2023-02-11T14:23:56.153Z,34.09
2023-02-11T14:26:35.395Z,34.31
2023-02-11T14:29:14.546Z,33.57
2023-02-11T14:31:49.012Z,33.37
2023-02-11T14:34:41.325Z,33.31
2023-02-11T14:37:32.764Z,33.54
2023-02-11T14:40:12.055Z,33.27
2023-02-11T14:42:40.828Z,33.79
2023-02-11T14:45:12.863Z,33.80
2023-02-11T14:47:46.408Z,33.48
2023-02-11T14:50:19.937Z,33.08
2023-02-11T14:52:51.571Z,32.94
2023-02-11T14:55:30.844Z,32.78
2023-02-11T14:58:13.952Z,32.77
2023-02-11T15:00:54.285Z,32.59
2023-02-11T15:03:34.260Z,32.24
2023-02-11T15:06:06.699Z,32.38
2023-02-11T15:08:43.388Z,32.62
2023-02-11T15:11:15.145Z,32.26
2023-02-11T15:13:47.610Z,31.71
2023-02-11T15:16:19.655Z,31.77
2023-02-11T15:18:52.760Z,31.77
2023-02-11T15:21:23.723Z,32.30
2023-02-11T15:24:01.364Z,32.45
2023-02-11T15:26:31.284Z,32.31
2023-02-11T15:28:59.711Z,32.89
2023-02-11T15:31:33.829Z,33.39
2023-02-11T15:34:09.565Z,33.03
2023-02-11T15:36:39.544Z,33.29
2023-02-11T15:39:32.655Z,32.82
2023-02-11T15:42:19.444Z,32.93
2023-02-11T15:44:56.582Z,33.10
2023-02-11T15:47:30.929Z,33.08
2023-02-11T15:49:59.627Z,33.41
2023-02-11T15:52:29.700Z,33.55
2023-02-11T15:55:02.477Z,33.78
2023-02-11T15:57:31.356Z,33.73
2023-02-11T16:00:04.507Z,34.01
2023-02-11T16:02:45.255Z,34.43
2023-02-11T16:05:28.356Z,34.31
2023-02-11T16:07:57.652Z,35.17
2023-02-11T16:10:30.233Z,34.90
2023-02-11T16:13:18.368Z,35.00
2023-02-11T16:15:54.953Z,35.25
2023-02-11T16:18:37.748Z,35.17
2023-02-11T16:21:08.921Z,35.49
2023-02-11T16:23:42.554Z,35.73
2023-02-11T16:26:23.647Z,36.29
2023-02-11T16:28:52.593Z,35.69
2023-02-11T16:31:21.405Z,35.88
2023-02-11T16:33:49.881Z,35.73
2023-02-11T16:36:18.434Z,36.15
2023-02-11T16:38:46.913Z,36.16
2023-02-11T16:41:16.670Z,36.30
2023-02-11T16:43:45.096Z,36.86
2023-02-11T16:46:16.159Z,37.56
2023-02-11T16:48:45.086Z,38.28
2023-02-11T16:51:13.786Z,38.06
2023-02-11T16:53:42.242Z,39.14
2023-02-11T16:56:17.925Z,39.72
2023-02-11T16:58:47.335Z,40.02
2023-02-11T17:01:16.502Z,41.01
2023-02-11T17:03:45.805Z,40.75
2023-02-11T17:06:14.947Z,40.42
2023-02-11T17:08:43.510Z,41.91
2023-02-11T17:11:11.859Z,42.21
2023-02-11T17:13:42.268Z,43.13
2023-02-11T17:16:18.692Z,43.86
2023-02-11T17:18:47.318Z,42.06
2023-02-11T17:21:16.023Z,43.60
2023-02-11T17:23:46.037Z,44.61
2023-02-11T17:26:15.470Z,45.33
2023-02-11T17:28:47.751Z,45.70
2023-02-11T17:31:16.268Z,46.22
2023-02-11T17:33:44.750Z,46.69
2023-02-11T17:36:13.185Z,47.29
2023-02-11T17:38:41.495Z,47.82
2023-02-11T17:41:10.064Z,48.35
2023-02-11T17:43:38.413Z,48.65
2023-02-11T17:46:11.471Z,49.27
2023-02-11T17:48:40.409Z,49.70
2023-02-11T17:51:23.228Z,50.16
2023-02-11T17:53:51.760Z,50.56
2023-02-11T17:56:20.820Z,51.10
2023-02-11T17:58:49.322Z,51.11
2023-02-11T18:01:19.311Z,51.11
2023-02-11T18:03:47.934Z,51.81
2023-02-11T18:06:16.293Z,51.65
2023-02-11T18:08:45.319Z,51.48
2023-02-11T18:11:15.222Z,52.17
2023-02-11T18:13:44.037Z,52.22
2023-02-11T18:16:15.943Z,52.67
2023-02-11T18:18:46.233Z,52.96
2023-02-11T18:21:16.068Z,53.79
2023-02-11T18:23:45.214Z,53.03
2023-02-11T18:26:15.841Z,52.75
2023-02-11T18:28:46.011Z,53.19
2023-02-11T18:31:15.532Z,52.96
2023-02-11T18:33:45.759Z,53.66
2023-02-11T18:36:15.615Z,53.87
2023-02-11T18:38:44.389Z,54.27
2023-02-11T18:41:14.341Z,53.73
2023-02-11T18:43:43.227Z,53.69
2023-02-11T18:46:12.991Z,54.44
2023-02-11T18:48:41.586Z,54.65
2023-02-11T18:51:13.378Z,54.15
2023-02-11T18:53:43.473Z,54.63
2023-02-11T18:56:13.783Z,54.86
2023-02-11T18:58:42.350Z,55.53
2023-02-11T19:01:16.366Z,55.89
2023-02-11T19:03:45.392Z,56.09
2023-02-11T19:06:21.045Z,56.09
2023-02-11T19:08:49.822Z,56.26
2023-02-11T19:11:19.986Z,56.35
2023-02-11T19:13:48.982Z,55.80
2023-02-11T19:16:20.064Z,55.90
2023-02-11T19:18:48.545Z,55.89
2023-02-11T19:21:20.712Z,56.32
2023-02-11T19:23:49.147Z,56.49
2023-02-11T19:26:17.506Z,56.90
2023-02-11T19:28:45.990Z,57.09
2023-02-11T19:31:15.156Z,57.09
2023-02-11T19:33:44.022Z,57.26
2023-02-11T19:36:16.437Z,57.66
2023-02-11T19:38:46.530Z,57.99
2023-02-11T19:41:16.400Z,58.03
2023-02-11T19:43:44.821Z,57.87
2023-02-11T19:46:13.150Z,57.95
2023-02-11T19:48:41.601Z,58.51
2023-02-11T19:51:13.229Z,58.45
2023-02-11T19:53:41.874Z,58.70
2023-02-11T19:56:12.833Z,59.06
2023-02-11T19:58:42.869Z,59.02
2023-02-11T20:01:13.441Z,56.08
2023-02-11T20:03:42.843Z,57.53
2023-02-11T20:06:14.616Z,58.37
2023-02-11T20:08:43.272Z,59.03
2023-02-11T20:11:15.619Z,59.03
2023-02-11T20:13:44.624Z,59.70
2023-02-11T20:16:16.868Z,59.56
2023-02-11T20:18:46.184Z,59.62
2023-02-11T20:21:16.049Z,59.31
2023-02-11T20:23:46.686Z,59.38
2023-02-11T20:26:18.612Z,59.70
2023-02-11T20:28:48.063Z,59.85
2023-02-11T20:31:18.686Z,59.33
2023-02-11T20:33:48.772Z,58.96
2023-02-11T20:36:19.709Z,59.43
2023-02-11T20:38:48.793Z,59.05
2023-02-11T20:41:21.659Z,58.53
2023-02-11T20:43:53.305Z,58.98
2023-02-11T20:46:24.085Z,59.11
2023-02-11T20:48:53.395Z,59.83
2023-02-11T20:51:23.504Z,60.12
2023-02-11T20:53:52.413Z,60.59
2023-02-11T20:56:24.555Z,60.95
2023-02-11T20:58:53.564Z,60.70
2023-02-11T21:01:23.730Z,60.51
2023-02-11T21:03:54.695Z,60.40
2023-02-11T21:06:24.326Z,60.53
2023-02-11T21:08:52.984Z,60.53
2023-02-11T21:11:22.899Z,60.99
2023-02-11T21:13:52.339Z,61.18
2023-02-11T21:16:22.337Z,61.20
2023-02-11T21:18:51.658Z,61.78
2023-02-11T21:21:20.762Z,61.69
2023-02-11T21:23:49.733Z,62.17
2023-02-11T21:26:18.240Z,62.44
2023-02-11T21:28:48.858Z,62.16
2023-02-11T21:31:21.326Z,62.12
2023-02-11T21:33:50.620Z,61.75
2023-02-11T21:36:19.199Z,61.54
2023-02-11T21:38:48.852Z,61.35
2023-02-11T21:41:17.591Z,61.94
2023-02-11T21:43:47.570Z,62.02
2023-02-11T21:46:17.867Z,61.95
2023-02-11T21:48:46.362Z,62.21
2023-02-11T21:51:16.850Z,62.84
2023-02-11T21:53:45.432Z,62.54
2023-02-11T21:56:15.438Z,62.67
2023-02-11T21:58:44.153Z,63.22
2023-02-11T22:01:16.872Z,63.22
2023-02-11T22:03:46.049Z,63.22
2023-02-11T22:06:16.027Z,62.88
2023-02-11T22:08:44.626Z,63.43
2023-02-11T22:11:14.597Z,63.71
2023-02-11T22:13:43.759Z,63.16
2023-02-11T22:16:16.627Z,62.58
2023-02-11T22:18:46.561Z,62.53
2023-02-11T22:21:16.874Z,62.88
2023-02-11T22:23:45.759Z,62.65
2023-02-11T22:26:16.991Z,63.25
2023-02-11T22:28:46.757Z,63.01
2023-02-11T22:31:18.577Z,63.44
2023-02-11T22:33:47.492Z,63.20
2023-02-11T22:36:18.298Z,63.30
2023-02-11T22:38:46.776Z,63.06
2023-02-11T22:41:15.621Z,63.05
2023-02-11T22:43:45.192Z,63.18
2023-02-11T22:46:19.861Z,63.24
2023-02-11T22:48:51.847Z,63.77
2023-02-11T22:51:22.743Z,63.63
2023-02-11T22:53:52.587Z,63.61
2023-02-11T22:56:21.379Z,63.48
2023-02-11T22:58:50.453Z,63.66
2023-02-11T23:01:22.626Z,63.51
2023-02-11T23:03:52.431Z,64.17
2023-02-11T23:06:21.209Z,64.04
2023-02-11T23:08:49.877Z,63.89
2023-02-11T23:11:21.015Z,64.28
2023-02-11T23:13:51.110Z,63.99
2023-02-11T23:16:23.002Z,64.05
2023-02-11T23:18:51.900Z,64.43
2023-02-11T23:21:23.065Z,64.48
2023-02-11T23:23:57.593Z,64.71
2023-02-11T23:26:26.598Z,64.45
2023-02-11T23:28:59.649Z,64.87
2023-02-11T23:31:31.595Z,65.10
2023-02-11T23:34:00.160Z,64.91
2023-02-11T23:36:28.543Z,64.96
2023-02-11T23:38:57.547Z,64.84
2023-02-11T23:41:26.670Z,65.27
2023-02-11T23:43:57.767Z,64.75
2023-02-11T23:46:28.937Z,65.17
2023-02-11T23:48:58.805Z,65.34
2023-02-11T23:51:27.196Z,65.34
2023-02-11T23:53:56.315Z,65.13
2023-02-11T23:56:27.283Z,64.92
2023-02-11T23:58:57.502Z,64.80
